createdAt,value
2023-01-20T00:00:41.761Z,-7.17
2023-01-20T00:01:41.728Z,-7.17
2023-01-20T00:02:41.805Z,-7.06
2023-01-20T00:03:41.774Z,-7.17
2023-01-20T00:04:41.729Z,-7.33
2023-01-20T00:05:41.726Z,-7.17
2023-01-20T00:06:41.741Z,-7.17
2023-01-20T00:07:41.734Z,-7.33
2023-01-20T00:08:41.730Z,-7.06
2023-01-20T00:09:41.736Z,-7.17
2023-01-20T00:10:41.732Z,-7.06
2023-01-20T00:11:41.728Z,-7.17
2023-01-20T00:12:41.737Z,-7.06
2023-01-20T00:13:41.741Z,-7.06
2023-01-20T00:14:41.744Z,-6.72
2023-01-20T00:15:41.819Z,-6.72
2023-01-20T00:16:41.751Z,-6.72
2023-01-20T00:17:41.736Z,-6.72
2023-01-20T00:18:41.769Z,-6.72
2023-01-20T00:19:41.746Z,-7.06
2023-01-20T00:20:41.733Z,-7.06
2023-01-20T00:21:41.735Z,-7.33
2023-01-20T00:22:41.739Z,-6.72
2023-01-20T00:23:41.739Z,-7.06
2023-01-20T00:24:41.733Z,-6.89
2023-01-20T00:25:41.736Z,-7.33
2023-01-20T00:26:41.737Z,-6.89
2023-01-20T00:27:41.735Z,-7.06
2023-01-20T00:28:41.754Z,-7.17
2023-01-20T00:29:41.742Z,-7.06
2023-01-20T00:30:41.778Z,-7.17
2023-01-20T00:31:41.837Z,-7.06
2023-01-20T00:32:41.756Z,-7.06
2023-01-20T00:33:41.743Z,-7.44
2023-01-20T00:34:41.778Z,-7.06
2023-01-20T00:35:41.760Z,-7.33
2023-01-20T00:36:41.749Z,-7.06
2023-01-20T00:37:41.749Z,-7.33
2023-01-20T00:38:41.747Z,-7.17
2023-01-20T00:39:41.749Z,-7.44
2023-01-20T00:40:41.751Z,-7.33
2023-01-20T00:41:41.763Z,-7.33
2023-01-20T00:42:41.757Z,-7.17
2023-01-20T00:43:41.743Z,-7.06
2023-01-20T00:44:41.754Z,-7.44
2023-01-20T00:45:41.755Z,-7.33
2023-01-20T00:46:41.821Z,-7.06
2023-01-20T00:47:41.771Z,-7.17
2023-01-20T00:48:41.771Z,-7.33
2023-01-20T00:49:41.777Z,-7.44
2023-01-20T00:50:41.779Z,-7.17
2023-01-20T00:51:41.760Z,-7.06
2023-01-20T00:52:41.769Z,-7.06
2023-01-20T00:53:41.758Z,-7.17
2023-01-20T00:54:41.764Z,-7.06
2023-01-20T00:55:41.770Z,-7.06
2023-01-20T00:56:41.798Z,-7.17
2023-01-20T00:57:41.777Z,-6.89
2023-01-20T00:58:41.767Z,-7.06
2023-01-20T00:59:41.778Z,-7.06
2023-01-20T01:00:41.817Z,-7.06
2023-01-20T01:01:41.944Z,-6.89
2023-01-20T01:02:41.842Z,-7.06
2023-01-20T01:03:41.774Z,-6.72
2023-01-20T01:04:41.761Z,-7.06
2023-01-20T01:05:41.772Z,-6.89
2023-01-20T01:06:41.803Z,-7.33
2023-01-20T01:07:41.773Z,-7.06
2023-01-20T01:08:41.769Z,-7.06
2023-01-20T01:09:41.786Z,-7.06
2023-01-20T01:10:41.780Z,-6.89
2023-01-20T01:11:41.791Z,-7.06
2023-01-20T01:12:41.774Z,-7.06
2023-01-20T01:13:41.776Z,-7.06
2023-01-20T01:14:41.771Z,-6.89
2023-01-20T01:15:41.775Z,-7.06
2023-01-20T01:16:41.786Z,-7.06
2023-01-20T01:17:41.779Z,-6.72
2023-01-20T01:18:41.790Z,-6.72
2023-01-20T01:19:41.772Z,-6.44
2023-01-20T01:20:41.773Z,-6.61
2023-01-20T01:21:41.767Z,-6.44
2023-01-20T01:22:41.814Z,-6.72
2023-01-20T01:23:41.780Z,-6.61
2023-01-20T01:24:41.780Z,-6.89
2023-01-20T01:25:41.778Z,-6.61
2023-01-20T01:26:41.772Z,-6.89
2023-01-20T01:27:41.785Z,-6.72
2023-01-20T01:28:41.782Z,-6.61
2023-01-20T01:29:41.773Z,-6.61
2023-01-20T01:30:41.828Z,-6.61
2023-01-20T01:31:41.841Z,-6.89
2023-01-20T01:32:41.785Z,-6.89
2023-01-20T01:33:41.781Z,-6.61
2023-01-20T01:34:41.787Z,-6.72
2023-01-20T01:35:41.806Z,-6.44
2023-01-20T01:36:41.795Z,-6.61
2023-01-20T01:37:41.794Z,-6.28
2023-01-20T01:38:41.813Z,-6.44
2023-01-20T01:39:41.787Z,-6.61
2023-01-20T01:40:41.810Z,-6.11
2023-01-20T01:41:41.795Z,-6.44
2023-01-20T01:42:42.829Z,-6.61
2023-01-20T01:43:41.786Z,-6.61
2023-01-20T01:44:41.788Z,-6.61
2023-01-20T01:45:41.838Z,-6.72
2023-01-20T01:46:41.802Z,-6.44
2023-01-20T01:47:41.801Z,-6.28
2023-01-20T01:48:41.817Z,-6.28
2023-01-20T01:49:41.806Z,-6.28
2023-01-20T01:50:41.798Z,-6.28
2023-01-20T01:51:41.817Z,-6.44
2023-01-20T01:52:41.797Z,-6.61
2023-01-20T01:53:41.803Z,-6.11
2023-01-20T01:54:41.815Z,-6.28
2023-01-20T01:55:41.801Z,-6.72
2023-01-20T01:56:41.798Z,-6.61
2023-01-20T01:57:41.814Z,-6.44
2023-01-20T01:58:41.799Z,-6.61
2023-01-20T01:59:41.805Z,-6.61
2023-01-20T02:00:41.823Z,-6.44
2023-01-20T02:01:41.920Z,-6.44
2023-01-20T02:02:41.850Z,-6.44
2023-01-20T02:03:41.807Z,-7.17
2023-01-20T02:04:41.807Z,-6.61
2023-01-20T02:05:41.811Z,-6.44
2023-01-20T02:06:41.819Z,-6.61
2023-01-20T02:07:41.804Z,-6.72
2023-01-20T02:08:41.806Z,-6.61
2023-01-20T02:09:41.805Z,-6.61
2023-01-20T02:10:41.833Z,-6.61
2023-01-20T02:11:41.836Z,-6.61
2023-01-20T02:12:41.822Z,-6.61
2023-01-20T02:13:41.812Z,-6.61
2023-01-20T02:14:41.809Z,-6.61
2023-01-20T02:15:41.806Z,-6.61
2023-01-20T02:16:41.926Z,-6.72
2023-01-20T02:17:41.821Z,-6.72
2023-01-20T02:18:41.806Z,-6.44
2023-01-20T02:19:41.814Z,-6.61
2023-01-20T02:20:41.819Z,-6.61
2023-01-20T02:21:41.811Z,-6.89
2023-01-20T02:22:41.821Z,-6.44
2023-01-20T02:23:41.813Z,-6.72
2023-01-20T02:24:41.827Z,-6.72
2023-01-20T02:25:41.811Z,-6.61
2023-01-20T02:26:41.842Z,-6.72
2023-01-20T02:27:41.810Z,-6.72
2023-01-20T02:28:41.840Z,-6.61
2023-01-20T02:29:41.825Z,-6.72
2023-01-20T02:30:41.857Z,-6.44
2023-01-20T02:31:41.876Z,-6.61
2023-01-20T02:32:41.810Z,-6.61
2023-01-20T02:33:41.813Z,-6.61
2023-01-20T02:34:41.821Z,-6.61
2023-01-20T02:35:41.813Z,-6.61
2023-01-20T02:36:41.824Z,-6.44
2023-01-20T02:37:41.819Z,-6.61
2023-01-20T02:38:41.847Z,-6.61
2023-01-20T02:39:41.828Z,-6.89
2023-01-20T02:40:41.831Z,-6.89
2023-01-20T02:41:41.828Z,-6.89
2023-01-20T02:42:41.866Z,-6.61
2023-01-20T02:43:41.825Z,-6.61
2023-01-20T02:44:41.858Z,-6.72
2023-01-20T02:45:41.865Z,-6.72
2023-01-20T02:46:41.827Z,-6.61
2023-01-20T02:47:41.838Z,-6.61
2023-01-20T02:48:41.832Z,-6.72
2023-01-20T02:49:41.846Z,-6.72
2023-01-20T02:50:41.831Z,-6.61
2023-01-20T02:51:41.833Z,-6.89
2023-01-20T02:52:41.829Z,-6.44
2023-01-20T02:53:41.829Z,-6.61
2023-01-20T02:54:41.836Z,-7.06
2023-01-20T02:55:41.832Z,-6.44
2023-01-20T02:56:41.832Z,-6.61
2023-01-20T02:57:41.836Z,-6.61
2023-01-20T02:58:41.851Z,-6.72
2023-01-20T02:59:41.838Z,-6.44
2023-01-20T03:00:41.839Z,-6.44
2023-01-20T03:01:41.923Z,-6.44
2023-01-20T03:02:41.830Z,-6.28
2023-01-20T03:03:41.839Z,-6.44
2023-01-20T03:04:41.831Z,-6.28
2023-01-20T03:05:41.869Z,-6.28
2023-01-20T03:06:41.828Z,-6.28
2023-01-20T03:07:41.846Z,-6.11
2023-01-20T03:08:41.843Z,-6.28
2023-01-20T03:09:41.834Z,-6.44
2023-01-20T03:10:41.837Z,-6.11
2023-01-20T03:11:41.840Z,-6.11
2023-01-20T03:12:41.826Z,-6.28
2023-01-20T03:13:41.834Z,-6.11
2023-01-20T03:14:41.940Z,-6.11
2023-01-20T03:15:41.840Z,-6
2023-01-20T03:16:41.900Z,-6.11
2023-01-20T03:17:41.847Z,-6
2023-01-20T03:18:41.839Z,-6
2023-01-20T03:19:41.849Z,-6.11
2023-01-20T03:20:41.832Z,-6.11
2023-01-20T03:21:41.843Z,-6.44
2023-01-20T03:22:41.840Z,-5.83
2023-01-20T03:23:41.839Z,-6.44
2023-01-20T03:24:41.841Z,-6
2023-01-20T03:25:41.844Z,-6.11
2023-01-20T03:26:41.847Z,-6.11
2023-01-20T03:27:41.853Z,-6.11
2023-01-20T03:28:41.837Z,-6.11
2023-01-20T03:29:41.849Z,-6.28
2023-01-20T03:30:41.986Z,-5.83
2023-01-20T03:31:41.977Z,-6.44
2023-01-20T03:32:41.848Z,-6.28
2023-01-20T03:33:41.844Z,-6
2023-01-20T03:34:41.845Z,-6
2023-01-20T03:35:41.842Z,-6
2023-01-20T03:36:41.849Z,-6.11
2023-01-20T03:37:41.846Z,-6.28
2023-01-20T03:38:41.867Z,-6.11
2023-01-20T03:39:41.847Z,-6.11
2023-01-20T03:40:41.851Z,-6.11
2023-01-20T03:41:41.843Z,-6.11
2023-01-20T03:42:41.867Z,-6.11
2023-01-20T03:43:41.863Z,-6.28
2023-01-20T03:44:41.863Z,-6.11
2023-01-20T03:45:41.894Z,-6.11
2023-01-20T03:46:41.869Z,-6.28
2023-01-20T03:47:41.851Z,-6
2023-01-20T03:48:41.868Z,-6.28
2023-01-20T03:49:41.857Z,-5.83
2023-01-20T03:50:41.852Z,-6.11
2023-01-20T03:51:41.864Z,-6.11
2023-01-20T03:52:46.804Z,-6.11
2023-01-20T03:53:41.871Z,-6
2023-01-20T03:54:41.858Z,-6.44
2023-01-20T03:55:41.871Z,-6.44
2023-01-20T03:56:41.866Z,-6.61
2023-01-20T03:57:41.868Z,-6
2023-01-20T03:58:41.846Z,-6.11
2023-01-20T03:59:41.865Z,-6.61
2023-01-20T04:00:41.858Z,-6
2023-01-20T04:01:41.973Z,-5.72
2023-01-20T04:02:41.881Z,-6.11
2023-01-20T04:03:41.971Z,-6.28
2023-01-20T04:04:41.860Z,-6.11
2023-01-20T04:05:41.880Z,-6.11
2023-01-20T04:06:41.857Z,-6.11
2023-01-20T04:07:41.864Z,-6
2023-01-20T04:08:41.847Z,-6.11
2023-01-20T04:09:41.865Z,-6
2023-01-20T04:10:41.885Z,-6.11
2023-01-20T04:11:41.866Z,-6.11
2023-01-20T04:12:41.865Z,-6.28
2023-01-20T04:13:41.861Z,-6.61
2023-01-20T04:14:41.873Z,-6.11
2023-01-20T04:15:41.863Z,-6.28
2023-01-20T04:16:41.858Z,-6.28
2023-01-20T04:17:41.852Z,-6.11
2023-01-20T04:18:41.883Z,-6.11
2023-01-20T04:19:41.875Z,-6.11
2023-01-20T04:20:41.868Z,-6.11
2023-01-20T04:21:41.859Z,-6.11
2023-01-20T04:22:41.857Z,-6.28
2023-01-20T04:23:41.852Z,-6
2023-01-20T04:24:41.851Z,-6.28
2023-01-20T04:25:41.871Z,-6.11
2023-01-20T04:26:41.885Z,-6.11
2023-01-20T04:27:41.859Z,-6.11
2023-01-20T04:28:41.864Z,-6.11
2023-01-20T04:29:41.865Z,-6.11
2023-01-20T04:30:41.944Z,-6.11
2023-01-20T04:31:41.907Z,-6.11
2023-01-20T04:32:41.861Z,-6.44
2023-01-20T04:33:41.864Z,-6.11
2023-01-20T04:34:41.912Z,-6.28
2023-01-20T04:35:41.878Z,-6.11
2023-01-20T04:36:41.873Z,-6.11
2023-01-20T04:37:41.873Z,-6.11
2023-01-20T04:38:41.862Z,-6.11
2023-01-20T04:39:41.860Z,-6
2023-01-20T04:40:41.859Z,-6.72
2023-01-20T04:41:41.859Z,-6.28
2023-01-20T04:42:41.876Z,-6.28
2023-01-20T04:43:41.853Z,-6.28
2023-01-20T04:44:41.870Z,-6.11
2023-01-20T04:45:41.915Z,-6.11
2023-01-20T04:46:41.969Z,-6.61
2023-01-20T04:47:41.869Z,-6.11
2023-01-20T04:48:41.884Z,-6.28
2023-01-20T04:49:41.859Z,-6.44
2023-01-20T04:50:41.878Z,-6.11
2023-01-20T04:51:41.861Z,-6.44
2023-01-20T04:52:41.874Z,-6
2023-01-20T04:53:41.868Z,-6.11
2023-01-20T04:54:41.887Z,-6
2023-01-20T04:55:41.856Z,-6.28
2023-01-20T04:56:41.864Z,-6.11
2023-01-20T04:57:41.867Z,-6.11
2023-01-20T04:58:41.885Z,-6
2023-01-20T04:59:41.880Z,-6.61
2023-01-20T05:00:43.591Z,-6
2023-01-20T05:01:42.116Z,-6.11
2023-01-20T05:02:41.924Z,-6.11
2023-01-20T05:03:41.880Z,-6.28
2023-01-20T05:04:41.885Z,-6
2023-01-20T05:05:41.871Z,-5.83
2023-01-20T05:06:41.899Z,-6
2023-01-20T05:07:41.891Z,-6.28
2023-01-20T05:08:41.870Z,-6.11
2023-01-20T05:09:41.880Z,-6.28
2023-01-20T05:10:41.872Z,-6
2023-01-20T05:11:41.864Z,-6
2023-01-20T05:12:41.871Z,-5.83
2023-01-20T05:13:41.867Z,-6.28
2023-01-20T05:14:41.883Z,-6
2023-01-20T05:15:41.940Z,-6.11
2023-01-20T05:16:41.879Z,-6.11
2023-01-20T05:17:41.877Z,-6.28
2023-01-20T05:18:41.881Z,-6
2023-01-20T05:19:41.884Z,-6.11
2023-01-20T05:20:41.875Z,-6.11
2023-01-20T05:21:41.863Z,-6.28
2023-01-20T05:22:41.887Z,-6.28
2023-01-20T05:23:41.870Z,-6.11
2023-01-20T05:24:41.892Z,-6.11
2023-01-20T05:25:41.882Z,-6.11
2023-01-20T05:26:41.881Z,-6.61
2023-01-20T05:27:41.876Z,-6.72
2023-01-20T05:28:41.869Z,-6.11
2023-01-20T05:29:41.886Z,-5.83
2023-01-20T05:30:41.982Z,-5.83
2023-01-20T05:31:41.961Z,-6
2023-01-20T05:32:41.875Z,-6.28
2023-01-20T05:33:41.886Z,-6.11
2023-01-20T05:34:41.868Z,-6.11
2023-01-20T05:35:41.865Z,-6
2023-01-20T05:36:41.894Z,-6
2023-01-20T05:37:41.874Z,-5.83
2023-01-20T05:38:41.918Z,-6.11
2023-01-20T05:39:41.890Z,-6.11
2023-01-20T05:40:41.872Z,-6.11
2023-01-20T05:41:41.875Z,-6.61
2023-01-20T05:42:41.877Z,-6
2023-01-20T05:43:41.874Z,-6.11
2023-01-20T05:44:41.889Z,-6.28
2023-01-20T05:45:41.879Z,-6.11
2023-01-20T05:46:41.932Z,-6.28
2023-01-20T05:47:41.879Z,-6.11
2023-01-20T05:48:41.886Z,-6.44
2023-01-20T05:49:41.884Z,-6.11
2023-01-20T05:50:41.873Z,-6.11
2023-01-20T05:51:41.867Z,-6.28
2023-01-20T05:52:41.871Z,-6.11
2023-01-20T05:53:41.894Z,-6.44
2023-01-20T05:54:41.901Z,-6
2023-01-20T05:55:41.877Z,-6.11
2023-01-20T05:56:41.881Z,-6.28
2023-01-20T05:57:41.903Z,-6.11
2023-01-20T05:58:41.878Z,-6.11
2023-01-20T05:59:41.868Z,-6.11
2023-01-20T06:00:41.876Z,-6.61
2023-01-20T06:01:41.891Z,-6.11
2023-01-20T06:02:42.011Z,-6
2023-01-20T06:03:41.966Z,-6.11
2023-01-20T06:04:41.895Z,-6.28
2023-01-20T06:05:41.881Z,-6.11
2023-01-20T06:06:41.879Z,-6.61
2023-01-20T06:07:41.876Z,-5.83
2023-01-20T06:08:41.890Z,-6
2023-01-20T06:09:41.882Z,-6.11
2023-01-20T06:10:41.903Z,-6.28
2023-01-20T06:11:41.884Z,-6
2023-01-20T06:12:41.883Z,-5.72
2023-01-20T06:13:41.885Z,-6
2023-01-20T06:14:41.888Z,-5.83
2023-01-20T06:15:41.884Z,-6.11
2023-01-20T06:16:41.873Z,-5.83
2023-01-20T06:17:41.889Z,-6.11
2023-01-20T06:18:41.882Z,-6
2023-01-20T06:19:41.885Z,-6.28
2023-01-20T06:20:41.878Z,-6.11
2023-01-20T06:21:41.888Z,-6.11
2023-01-20T06:22:41.894Z,-6.28
2023-01-20T06:23:41.882Z,-6
2023-01-20T06:24:41.877Z,-6
2023-01-20T06:25:41.871Z,-6.11
2023-01-20T06:26:41.924Z,-5.72
2023-01-20T06:27:41.894Z,-5.83
2023-01-20T06:28:41.885Z,-5.72
2023-01-20T06:29:41.875Z,-5.72
2023-01-20T06:30:41.912Z,-5.83
2023-01-20T06:31:42.007Z,-6.11
2023-01-20T06:32:41.886Z,-6.28
2023-01-20T06:33:41.879Z,-6
2023-01-20T06:34:41.889Z,-6
2023-01-20T06:35:41.884Z,-6.11
2023-01-20T06:36:41.894Z,-5.83
2023-01-20T06:37:41.920Z,-6.28
2023-01-20T06:38:41.889Z,-6.28
2023-01-20T06:39:41.899Z,-6.11
2023-01-20T06:40:41.889Z,-6.61
2023-01-20T06:41:41.875Z,-6.11
2023-01-20T06:42:41.911Z,-6.28
2023-01-20T06:43:41.976Z,-6.11
2023-01-20T06:44:41.912Z,-5.83
2023-01-20T06:45:41.879Z,-6.44
2023-01-20T06:46:41.912Z,-6.11
2023-01-20T06:47:41.882Z,-6.11
2023-01-20T06:48:41.913Z,-6
2023-01-20T06:49:41.885Z,-5.83
2023-01-20T06:50:41.884Z,-5.83
2023-01-20T06:51:41.969Z,-5.83
2023-01-20T06:52:41.887Z,-5.72
2023-01-20T06:53:41.890Z,-5.56
2023-01-20T06:54:41.890Z,-5.72
2023-01-20T06:55:41.887Z,-5.56
2023-01-20T06:56:41.884Z,-5.83
2023-01-20T06:57:41.889Z,-5.56
2023-01-20T06:58:41.908Z,-5.72
2023-01-20T06:59:41.888Z,-5.56
2023-01-20T07:00:41.922Z,-5.83
2023-01-20T07:01:41.990Z,-5.72
2023-01-20T07:02:41.916Z,-5.72
2023-01-20T07:03:41.901Z,-5.72
2023-01-20T07:04:41.881Z,-5.72
2023-01-20T07:05:41.893Z,-5.83
2023-01-20T07:06:41.905Z,-5.83
2023-01-20T07:07:41.902Z,-6
2023-01-20T07:08:41.896Z,-6
2023-01-20T07:09:41.908Z,-5.83
2023-01-20T07:10:41.891Z,-6
2023-01-20T07:11:41.902Z,-5.83
2023-01-20T07:12:41.892Z,-5.83
2023-01-20T07:13:41.903Z,-5.83
2023-01-20T07:14:41.935Z,-5.72
2023-01-20T07:15:41.904Z,-5.72
2023-01-20T07:16:41.933Z,-6
2023-01-20T07:17:41.918Z,-6.11
2023-01-20T07:18:41.900Z,-6
2023-01-20T07:19:41.899Z,-5.83
2023-01-20T07:20:41.898Z,-6
2023-01-20T07:21:41.906Z,-5.72
2023-01-20T07:22:41.897Z,-6.28
2023-01-20T07:23:41.899Z,-5.56
2023-01-20T07:24:41.924Z,-5.72
2023-01-20T07:25:41.908Z,-6
2023-01-20T07:26:41.913Z,-5.83
2023-01-20T07:27:41.921Z,-5.83
2023-01-20T07:28:41.903Z,-6
2023-01-20T07:29:41.919Z,-5.72
2023-01-20T07:30:42.007Z,-6
2023-01-20T07:31:41.981Z,-5.72
2023-01-20T07:32:41.917Z,-5.72
2023-01-20T07:33:41.922Z,-5.72
2023-01-20T07:34:41.909Z,-5.39
2023-01-20T07:35:41.902Z,-5.72
2023-01-20T07:36:41.908Z,-5.72
2023-01-20T07:37:41.918Z,-5.39
2023-01-20T07:38:41.919Z,-5.22
2023-01-20T07:39:41.916Z,-5.39
2023-01-20T07:40:41.911Z,-5.72
2023-01-20T07:41:41.910Z,-5.56
2023-01-20T07:42:41.920Z,-5.22
2023-01-20T07:43:41.921Z,-5.22
2023-01-20T07:44:41.906Z,-5.39
2023-01-20T07:45:41.966Z,-5.22
2023-01-20T07:46:41.944Z,-5.22
2023-01-20T07:47:41.913Z,-5.22
2023-01-20T07:48:41.938Z,-5.56
2023-01-20T07:49:41.918Z,-5.22
2023-01-20T07:50:41.922Z,-5.22
2023-01-20T07:51:41.918Z,-5.22
2023-01-20T07:52:41.923Z,-5.39
2023-01-20T07:53:41.929Z,-5.22
2023-01-20T07:54:41.924Z,-5.22
2023-01-20T07:55:41.919Z,-5.22
2023-01-20T07:56:41.909Z,-5.06
2023-01-20T07:57:41.923Z,-5.22
2023-01-20T07:58:41.927Z,-5.22
2023-01-20T07:59:41.926Z,-5.22
2023-01-20T08:00:41.955Z,-5.39
2023-01-20T08:01:42.026Z,-5.22
2023-01-20T08:02:41.953Z,-5.39
2023-01-20T08:03:41.931Z,-5.22
2023-01-20T08:04:41.941Z,-5.22
2023-01-20T08:05:41.932Z,-5.22
2023-01-20T08:06:41.929Z,-5.22
2023-01-20T08:07:41.956Z,-5.22
2023-01-20T08:08:41.924Z,-5.22
2023-01-20T08:09:41.937Z,-5.39
2023-01-20T08:10:41.941Z,-5.22
2023-01-20T08:11:41.927Z,-5.39
2023-01-20T08:12:41.935Z,-5.39
2023-01-20T08:13:41.930Z,-4.94
2023-01-20T08:14:41.927Z,-4.94
2023-01-20T08:15:41.922Z,-4.78
2023-01-20T08:16:42.005Z,-4.78
2023-01-20T08:17:41.919Z,-4.78
2023-01-20T08:18:41.951Z,-4.78
2023-01-20T08:19:41.930Z,-4.78
2023-01-20T08:20:41.928Z,-5.06
2023-01-20T08:21:41.928Z,-5.06
2023-01-20T08:22:41.930Z,-5.22
2023-01-20T08:23:41.932Z,-5.39
2023-01-20T08:24:41.939Z,-5.22
2023-01-20T08:25:41.952Z,-5.06
2023-01-20T08:26:41.950Z,-5.06
2023-01-20T08:27:41.934Z,-4.94
2023-01-20T08:28:41.930Z,-4.94
2023-01-20T08:29:41.935Z,-4.33
2023-01-20T08:30:42.086Z,-4.5
2023-01-20T08:31:42.044Z,-5.06
2023-01-20T08:32:41.965Z,-5.06
2023-01-20T08:33:41.939Z,-4.94
2023-01-20T08:34:41.981Z,-4.61
2023-01-20T08:35:41.940Z,-4.5
2023-01-20T08:36:41.954Z,-4.33
2023-01-20T08:37:41.934Z,-4.5
2023-01-20T08:38:41.972Z,-4.33
2023-01-20T08:39:41.954Z,-4.5
2023-01-20T08:40:41.943Z,-4.33
2023-01-20T08:41:41.951Z,-4.33
2023-01-20T08:42:41.946Z,-4.33
2023-01-20T08:43:41.946Z,-4.33
2023-01-20T08:44:41.946Z,-4.33
2023-01-20T08:45:41.989Z,-4.33
2023-01-20T08:46:42.154Z,-4.33
2023-01-20T08:47:41.958Z,-4.33
2023-01-20T08:48:41.959Z,-4.94
2023-01-20T08:49:41.945Z,-4.78
2023-01-20T08:50:42.002Z,-5.06
2023-01-20T08:51:42.053Z,-5.22
2023-01-20T08:52:41.958Z,-4.78
2023-01-20T08:53:41.951Z,-4.61
2023-01-20T08:54:41.977Z,-4.61
2023-01-20T08:55:41.956Z,-4.5
2023-01-20T08:56:41.956Z,-4.61
2023-01-20T08:57:41.961Z,-4.5
2023-01-20T08:58:41.954Z,-4.22
2023-01-20T08:59:41.963Z,-4.22
2023-01-20T09:00:41.956Z,-4.78
2023-01-20T09:01:42.114Z,-4.5
2023-01-20T09:02:42.053Z,-4.5
2023-01-20T09:03:44.990Z,-4.78
2023-01-20T09:04:41.955Z,-5.06
2023-01-20T09:05:41.960Z,-5.06
2023-01-20T09:06:41.998Z,-4.78
2023-01-20T09:07:41.962Z,-4.5
2023-01-20T09:08:41.959Z,-4.5
2023-01-20T09:09:41.980Z,-4.78
2023-01-20T09:10:41.976Z,-4.94
2023-01-20T09:11:41.989Z,-4.33
2023-01-20T09:12:41.963Z,-4.22
2023-01-20T09:13:41.966Z,-4.22
2023-01-20T09:14:41.967Z,-4.22
2023-01-20T09:15:42.063Z,-4.06
2023-01-20T09:16:41.956Z,-4.33
2023-01-20T09:17:41.967Z,-4.33
2023-01-20T09:18:41.982Z,-4.06
2023-01-20T09:19:41.950Z,-3.89
2023-01-20T09:20:41.973Z,-4.78
2023-01-20T09:21:41.987Z,-4.33
2023-01-20T09:22:42.045Z,-4.94
2023-01-20T09:23:41.971Z,-4.5
2023-01-20T09:24:41.994Z,-4.78
2023-01-20T09:25:41.983Z,-4.5
2023-01-20T09:26:42.014Z,-4.94
2023-01-20T09:27:41.964Z,-4.5
2023-01-20T09:28:41.968Z,-4.33
2023-01-20T09:29:41.977Z,-4.33
2023-01-20T09:30:42.059Z,-4.33
2023-01-20T09:31:42.103Z,-3.89
2023-01-20T09:32:41.979Z,-4.33
2023-01-20T09:33:41.975Z,-4.33
2023-01-20T09:34:41.972Z,-4.78
2023-01-20T09:35:41.967Z,-4.94
2023-01-20T09:36:41.988Z,-4.33
2023-01-20T09:37:42.009Z,-4.33
2023-01-20T09:38:42.080Z,-4.33
2023-01-20T09:39:41.988Z,-4.06
2023-01-20T09:40:41.986Z,-3.89
2023-01-20T09:41:42.237Z,-3.89
2023-01-20T09:42:41.984Z,-3.89
2023-01-20T09:43:42.006Z,-3.89
2023-01-20T09:44:42.044Z,-3.89
2023-01-20T09:45:42.000Z,-3.72
2023-01-20T09:46:41.985Z,-3.44
2023-01-20T09:47:41.995Z,-3.61
2023-01-20T09:48:41.987Z,-3.44
2023-01-20T09:49:41.993Z,-3.72
2023-01-20T09:50:41.990Z,-3.72
2023-01-20T09:51:41.987Z,-3.89
2023-01-20T09:52:41.993Z,-3.72
2023-01-20T09:53:42.019Z,-3.44
2023-01-20T09:54:42.007Z,-3.61
2023-01-20T09:55:41.988Z,-3.72
2023-01-20T09:56:41.998Z,-3.72
2023-01-20T09:57:42.007Z,-3.89
2023-01-20T09:58:41.991Z,-3.89
2023-01-20T09:59:42.004Z,-3.44
2023-01-20T10:00:42.000Z,-3.06
2023-01-20T10:01:42.065Z,-3.06
2023-01-20T10:02:42.005Z,-2.44
2023-01-20T10:03:42.043Z,-2.17
2023-01-20T10:04:42.012Z,-2.28
2023-01-20T10:05:42.054Z,-2.72
2023-01-20T10:06:42.022Z,-3.06
2023-01-20T10:07:42.006Z,-3.44
2023-01-20T10:08:45.927Z,-3.28
2023-01-20T10:09:42.007Z,-3.17
2023-01-20T10:10:42.029Z,-3.06
2023-01-20T10:11:42.063Z,-3.17
2023-01-20T10:12:42.023Z,-3.17
2023-01-20T10:13:42.009Z,-3.17
2023-01-20T10:14:42.010Z,-3.06
2023-01-20T10:15:42.055Z,-3.28
2023-01-20T10:16:42.017Z,-3.28
2023-01-20T10:17:42.019Z,-3.28
2023-01-20T10:18:42.039Z,-3.17
2023-01-20T10:19:42.016Z,-3.06
2023-01-20T10:20:42.016Z,-3.44
2023-01-20T10:21:42.008Z,-3.28
2023-01-20T10:22:42.028Z,-3.44
2023-01-20T10:23:42.022Z,-3.61
2023-01-20T10:24:42.027Z,-3.44
2023-01-20T10:25:42.015Z,-3.28
2023-01-20T10:26:42.050Z,-2.89
2023-01-20T10:27:42.017Z,-2.89
2023-01-20T10:28:42.023Z,-2.61
2023-01-20T10:29:42.022Z,-2.72
2023-01-20T10:30:42.078Z,-2.72
2023-01-20T10:31:42.062Z,-2.89
2023-01-20T10:32:42.032Z,-2.72
2023-01-20T10:33:42.033Z,-2.61
2023-01-20T10:34:42.026Z,-2.89
2023-01-20T10:35:42.036Z,-2.61
2023-01-20T10:36:42.036Z,-2.28
2023-01-20T10:37:42.051Z,-2.17
2023-01-20T10:38:42.022Z,-2.17
2023-01-20T10:39:42.037Z,-2.17
2023-01-20T10:40:42.122Z,-2.61
2023-01-20T10:41:42.040Z,-3.06
2023-01-20T10:42:42.077Z,-3.44
2023-01-20T10:43:42.036Z,-3.28
2023-01-20T10:44:42.036Z,-3.28
2023-01-20T10:45:42.062Z,-3.28
2023-01-20T10:46:42.084Z,-3.61
2023-01-20T10:47:42.056Z,-3.44
2023-01-20T10:48:42.049Z,-3.44
2023-01-20T10:49:42.040Z,-3.44
2023-01-20T10:50:42.029Z,-3.17
2023-01-20T10:51:42.032Z,-3.44
2023-01-20T10:52:42.085Z,-3.44
2023-01-20T10:53:42.041Z,-3.17
2023-01-20T10:54:42.033Z,-3.28
2023-01-20T10:55:42.045Z,-3.06
2023-01-20T10:56:42.040Z,-2.89
2023-01-20T10:57:42.043Z,-3.06
2023-01-20T10:58:42.065Z,-3.06
2023-01-20T10:59:42.043Z,-2.72
2023-01-20T11:00:42.056Z,-3.06
2023-01-20T11:01:42.083Z,-3.06
2023-01-20T11:02:42.058Z,-3.06
2023-01-20T11:03:42.060Z,-2.89
2023-01-20T11:04:42.055Z,-2.89
2023-01-20T11:05:42.041Z,-2.61
2023-01-20T11:06:42.045Z,-2.61
2023-01-20T11:07:42.054Z,-2.72
2023-01-20T11:08:44.259Z,-2.72
2023-01-20T11:09:42.066Z,-3.06
2023-01-20T11:10:42.052Z,-2.89
2023-01-20T11:11:42.061Z,-2.61
2023-01-20T11:12:42.060Z,-2.72
2023-01-20T11:13:42.064Z,-3.06
2023-01-20T11:14:42.144Z,-3.44
2023-01-20T11:15:42.044Z,-3.28
2023-01-20T11:16:42.127Z,-3.44
2023-01-20T11:17:42.045Z,-3.28
2023-01-20T11:18:42.051Z,-3.06
2023-01-20T11:19:42.048Z,-3.06
2023-01-20T11:20:42.052Z,-2.89
2023-01-20T11:21:42.095Z,-2.72
2023-01-20T11:22:42.055Z,-2.89
2023-01-20T11:23:42.055Z,-2.61
2023-01-20T11:24:42.047Z,-2.72
2023-01-20T11:25:42.053Z,-2.61
2023-01-20T11:26:42.061Z,-2.89
2023-01-20T11:27:42.052Z,-2.72
2023-01-20T11:28:42.063Z,-2.28
2023-01-20T11:29:42.071Z,-2.28
2023-01-20T11:30:42.107Z,-2.28
2023-01-20T11:31:42.132Z,-2.17
2023-01-20T11:32:42.056Z,-2.72
2023-01-20T11:33:42.063Z,-2
2023-01-20T11:34:42.067Z,-1.83
2023-01-20T11:35:42.070Z,-1.67
2023-01-20T11:36:42.962Z,-2.17
2023-01-20T11:37:42.072Z,-2.89
2023-01-20T11:38:42.068Z,-2.89
2023-01-20T11:39:42.053Z,-2.17
2023-01-20T11:40:42.064Z,-2.28
2023-01-20T11:41:42.066Z,-2.28
2023-01-20T11:42:42.076Z,-2.17
2023-01-20T11:43:42.075Z,-2.72
2023-01-20T11:44:42.077Z,-2.61
2023-01-20T11:45:42.082Z,-2.61
2023-01-20T11:46:42.136Z,-2.61
2023-01-20T11:47:42.084Z,-2.28
2023-01-20T11:48:42.078Z,-2.44
2023-01-20T11:49:42.071Z,-2.61
2023-01-20T11:50:42.073Z,-2.28
2023-01-20T11:51:42.098Z,-2.72
2023-01-20T11:52:42.074Z,-2.61
2023-01-20T11:53:42.076Z,-2.44
2023-01-20T11:54:42.072Z,-3.17
2023-01-20T11:55:42.069Z,-2.72
2023-01-20T11:56:42.097Z,-2.44
2023-01-20T11:57:42.081Z,-2.17
2023-01-20T11:58:42.087Z,-2
2023-01-20T11:59:42.093Z,-1.83
2023-01-20T12:00:42.103Z,-2.17
2023-01-20T12:01:42.111Z,-2.44
2023-01-20T12:02:42.104Z,-2.61
2023-01-20T12:03:42.085Z,-2.44
2023-01-20T12:04:42.095Z,-2.28
2023-01-20T12:05:42.087Z,-2.44
2023-01-20T12:06:42.088Z,-2.17
2023-01-20T12:07:42.112Z,-1.83
2023-01-20T12:08:42.086Z,-1.83
2023-01-20T12:09:42.105Z,-1.44
2023-01-20T12:10:42.095Z,-1.56
2023-01-20T12:11:42.096Z,-1.56
2023-01-20T12:12:42.098Z,-1.67
2023-01-20T12:13:42.090Z,-2.17
2023-01-20T12:14:42.101Z,-2.44
2023-01-20T12:15:42.097Z,-2.44
2023-01-20T12:16:42.138Z,-2.61
2023-01-20T12:17:42.106Z,-2.72
2023-01-20T12:18:53.448Z,-2.17
2023-01-20T12:19:42.098Z,-1.83
2023-01-20T12:20:53.871Z,-1.83
2023-01-20T12:21:42.107Z,-2
2023-01-20T12:22:42.093Z,-2.17
2023-01-20T12:23:42.098Z,-1.67
2023-01-20T12:24:43.073Z,-1.56
2023-01-20T12:25:42.103Z,-1
2023-01-20T12:26:42.106Z,-1.28
2023-01-20T12:27:42.110Z,-1.44
2023-01-20T12:28:42.105Z,-1.83
2023-01-20T12:29:42.098Z,-1.44
2023-01-20T12:30:42.129Z,-1.83
2023-01-20T12:31:42.133Z,-2.28
2023-01-20T12:32:42.097Z,-1.44
2023-01-20T12:33:42.113Z,-1.28
2023-01-20T12:34:42.160Z,-0.67
2023-01-20T12:35:42.113Z,-0.56
2023-01-20T12:36:42.110Z,-1.28
2023-01-20T12:37:42.109Z,-1.67
2023-01-20T12:38:42.116Z,-1.56
2023-01-20T12:39:42.109Z,-1.56
2023-01-20T12:40:42.116Z,-1.67
2023-01-20T12:41:42.105Z,-2
2023-01-20T12:42:42.114Z,-1.67
2023-01-20T12:43:42.144Z,-2.17
2023-01-20T12:44:42.124Z,-2.28
2023-01-20T12:45:42.175Z,-2.44
2023-01-20T12:46:42.126Z,-2.28
2023-01-20T12:47:42.119Z,-2
2023-01-20T12:48:42.132Z,-1.67
2023-01-20T12:49:42.134Z,-1.67
2023-01-20T12:50:42.145Z,-1.67
2023-01-20T12:51:42.119Z,-2.17
2023-01-20T12:52:42.189Z,-2.17
2023-01-20T12:53:42.120Z,-2.17
2023-01-20T12:54:48.547Z,-1.44
2023-01-20T12:55:42.123Z,-0.83
2023-01-20T12:56:42.122Z,-0.56
2023-01-20T12:57:42.118Z,-1.11
2023-01-20T12:58:42.135Z,-1.28